Time;durP1;ratioP1;P1;durP2;ratioP2;P2;SDS_P1;SDS_P2;PMS_P1;PMS_P2;Temp;Humidity;BMP_temperature;BMP_pressure;BME280_temperature;BME280_humidity;BME280_pressure;Samples;Min_cycle;Max_cycle;Signal;HPM_P1;HPM_P2
2020/12/25 00:02:12;;;;;;;4.87;4.03;;;;;;;3.76;76.93;98878.34;120546;1148;104419;-78
2020/12/25 00:04:40;;;;;;;5.67;3.93;;;;;;;3.74;77.23;98890.42;120545;1149;104074;-77
2020/12/25 00:07:07;;;;;;;6.20;3.80;;;;;;;3.73;77.05;98888.73;120556;1148;104361;-77
2020/12/25 00:09:34;;;;;;;5.42;4.12;;;;;;;3.70;76.94;98888.82;120519;1150;104385;-77
2020/12/25 00:12:02;;;;;;;6.77;3.50;;;;;;;3.72;77.71;98893.05;120595;1149;104310;-78
2020/12/25 00:14:29;;;;;;;4.57;3.60;;;;;;;3.74;77.15;98900.74;120594;1150;104420;-78
2020/12/25 00:17:00;;;;;;;4.57;3.93;;;;;;;3.78;77.72;98908.38;120557;1148;103678;-78
2020/12/25 00:19:27;;;;;;;5.30;3.80;;;;;;;3.81;77.27;98908.30;120561;1149;104420;-79
2020/12/25 00:21:55;;;;;;;5.23;3.77;;;;;;;3.86;77.42;98913.33;120576;1148;104375;-77
2020/12/25 00:24:22;;;;;;;4.77;3.30;;;;;;;3.90;77.19;98914.93;120572;1149;104449;-78
2020/12/25 00:26:49;;;;;;;5.50;3.97;;;;;;;3.92;77.92;98911.42;120535;1148;104281;-78
2020/12/25 00:29:17;;;;;;;5.53;4.00;;;;;;;3.93;77.86;98920.84;120550;1148;104330;-79
2020/12/25 00:31:45;;;;;;;5.70;4.37;;;;;;;3.95;77.78;98920.84;120554;1149;104426;-78
2020/12/25 00:34:13;;;;;;;4.93;4.30;;;;;;;3.95;77.18;98926.00;120577;1149;104898;-77
2020/12/25 00:36:45;;;;;;;7.67;5.43;;;;;;;3.98;78.01;98930.23;120579;1148;104415;-78
2020/12/25 00:39:17;;;;;;;7.40;5.90;;;;;;;3.97;77.28;98921.64;120622;1151;104362;-77
2020/12/25 00:41:50;;;;;;;8.00;5.87;;;;;;;3.96;78.18;98932.84;120668;1150;104342;-78
2020/12/25 00:44:19;;;;;;;7.17;6.00;;;;;;;3.95;77.93;98938.89;120610;1148;104579;-78
2020/12/25 00:46:47;;;;;;;8.10;6.50;;;;;;;3.97;77.83;98944.02;120670;1148;104373;-79
2020/12/25 00:49:17;;;;;;;7.20;5.70;;;;;;;3.99;78.11;98942.23;120636;1148;104445;-78
2020/12/25 00:51:47;;;;;;;7.33;6.50;;;;;;;3.98;77.88;98950.86;120614;1148;104275;-78
2020/12/25 00:54:16;;;;;;;9.35;7.10;;;;;;;3.97;77.83;98954.33;120674;1148;104396;-78
2020/12/25 00:56:49;;;;;;;8.37;6.27;;;;;;;3.94;78.65;98955.23;120585;1148;104335;-78
2020/12/25 00:59:20;;;;;;;7.07;5.67;;;;;;;3.94;78.70;98962.97;120578;1148;104310;-78
2020/12/25 01:01:50;;;;;;;7.47;5.80;;;;;;;3.93;78.91;98969.02;120611;1148;105945;-78
2020/12/25 01:04:19;;;;;;;7.13;5.43;;;;;;;3.94;78.32;98975.86;120620;1148;104404;-78
2020/12/25 01:06:47;;;;;;;8.23;7.00;;;;;;;3.98;79.04;98977.50;120621;1148;104339;-77
2020/12/25 01:09:14;;;;;;;9.63;6.33;;;;;;;3.99;78.85;98976.62;120526;1148;104437;-78
2020/12/25 01:11:42;;;;;;;7.37;5.87;;;;;;;3.98;78.47;98982.66;120606;1148;104431;-77
2020/12/25 01:14:10;;;;;;;7.93;5.70;;;;;;;3.98;78.70;98974.92;120606;1148;104297;-78
2020/12/25 01:16:37;;;;;;;5.67;4.67;;;;;;;4.00;79.51;98987.78;120592;1150;104860;-77
2020/12/25 01:19:04;;;;;;;7.03;5.60;;;;;;;4.04;78.98;98987.66;120535;1148;104445;-78
2020/12/25 01:21:31;;;;;;;8.43;5.73;;;;;;;4.02;78.85;98984.27;120541;1150;104330;-78
2020/12/25 01:23:59;;;;;;;6.93;5.30;;;;;;;4.05;79.40;98998.82;120643;1151;104417;-77
2020/12/25 01:26:26;;;;;;;6.20;5.20;;;;;;;4.04;79.64;98994.55;120562;1148;104385;-78
2020/12/25 01:29:01;;;;;;;6.57;5.33;;;;;;;4.01;79.11;98998.06;120586;1148;104316;-78
2020/12/25 01:31:28;;;;;;;6.90;5.20;;;;;;;3.99;79.28;99012.73;120571;1146;104361;-78
2020/12/25 01:33:56;;;;;;;6.97;5.17;;;;;;;4.01;79.91;99018.70;120579;1148;104439;-78
2020/12/25 01:36:23;;;;;;;9.47;5.27;;;;;;;4.01;79.40;99013.54;120570;1148;104389;-78
2020/12/25 01:38:51;;;;;;;5.33;4.80;;;;;;;3.99;79.84;99020.47;120533;1148;104332;-78
2020/12/25 01:41:18;;;;;;;8.67;6.10;;;;;;;3.95;79.98;99021.44;120596;1148;104477;-77
2020/12/25 01:43:46;;;;;;;6.90;5.13;;;;;;;3.95;79.71;99031.76;120550;1148;104490;-78
2020/12/25 01:46:15;;;;;;;8.23;5.83;;;;;;;3.92;80.06;99035.23;120564;1150;104450;-78
2020/12/25 01:48:43;;;;;;;7.37;5.80;;;;;;;3.89;80.19;99037.89;120554;1148;104433;-78
2020/12/25 01:51:14;;;;;;;7.43;5.83;;;;;;;3.87;79.79;99034.51;120589;1148;104361;-78
2020/12/25 01:53:43;;;;;;;7.27;5.60;;;;;;;3.86;80.37;99037.12;120690;1150;104357;-79
2020/12/25 01:56:11;;;;;;;7.97;6.00;;;;;;;3.87;79.96;99036.24;120597;1148;103166;-78
2020/12/25 01:58:39;;;;;;;7.30;5.97;;;;;;;3.85;80.01;99027.70;120496;1148;104454;-78
2020/12/25 02:01:07;;;;;;;7.77;6.13;;;;;;;3.80;80.34;99042.45;120552;1148;104409;-78
2020/12/25 02:03:36;;;;;;;7.27;6.00;;;;;;;3.77;80.39;99040.80;120584;1148;104388;-77
2020/12/25 02:06:03;;;;;;;7.00;5.80;;;;;;;3.74;80.12;99040.84;120661;1150;104323;-78
2020/12/25 02:08:31;;;;;;;6.70;5.93;;;;;;;3.74;80.82;99034.83;120581;1151;104447;-78
2020/12/25 02:10:58;;;;;;;6.20;5.07;;;;;;;3.71;80.80;99024.59;120519;1148;104451;-78
2020/12/25 02:13:29;;;;;;;7.00;6.03;;;;;;;3.64;80.24;99032.48;120550;1150;104358;-78
2020/12/25 02:16:00;;;;;;;6.80;5.33;;;;;;;3.59;80.66;99036.03;120576;1148;104449;-78
2020/12/25 02:18:38;;;;;;;7.57;5.27;;;;;;;3.53;80.79;99038.77;120601;1148;104500;-78
2020/12/25 02:21:06;;;;;;;9.73;5.50;;;;;;;3.50;80.88;99054.30;120650;1148;104354;-78
2020/12/25 02:23:35;;;;;;;7.37;5.73;;;;;;;3.46;80.91;99066.42;120551;1148;104515;-77
2020/12/25 02:26:05;;;;;;;6.43;5.03;;;;;;;3.44;80.49;99075.92;120571;1148;104404;-78
2020/12/25 02:28:32;;;;;;;8.50;5.13;;;;;;;3.43;80.55;99075.96;120586;1148;104279;-78
2020/12/25 02:30:59;;;;;;;9.07;5.67;;;;;;;3.39;80.30;99085.46;120552;1148;104441;-78
2020/12/25 02:33:27;;;;;;;6.67;5.30;;;;;;;3.38;81.03;99088.92;120560;1148;105423;-78
2020/12/25 02:35:54;;;;;;;5.67;4.57;;;;;;;3.38;80.89;99093.23;120599;1148;104470;-78
2020/12/25 02:38:25;;;;;;;8.07;5.23;;;;;;;3.39;80.85;99092.34;120610;1148;104807;-78
2020/12/25 02:40:52;;;;;;;8.20;5.27;;;;;;;3.40;81.29;99091.46;120584;1148;104311;-78
2020/12/25 02:43:19;;;;;;;7.37;5.23;;;;;;;3.40;80.84;99094.89;120620;1148;104396;-77
2020/12/25 02:45:46;;;;;;;8.90;5.47;;;;;;;3.43;81.03;99097.42;120530;1148;105039;-77
2020/12/25 02:48:18;;;;;;;6.27;5.07;;;;;;;3.46;80.71;99106.81;120570;1148;104407;-77
2020/12/25 02:50:45;;;;;;;6.83;5.20;;;;;;;3.46;80.82;99112.82;120576;1150;104387;-77
2020/12/25 02:53:13;;;;;;;9.53;6.13;;;;;;;3.49;81.04;99110.17;120573;1148;104432;-77
2020/12/25 02:55:40;;;;;;;7.40;5.20;;;;;;;3.50;81.21;99117.02;120524;1148;104425;-78
2020/12/25 02:58:07;;;;;;;7.80;5.80;;;;;;;3.53;81.11;99114.37;120580;1148;104488;-78
2020/12/25 03:00:35;;;;;;;6.70;4.90;;;;;;;3.58;81.08;99122.00;120536;1148;104422;-77
2020/12/25 03:03:02;;;;;;;6.40;5.07;;;;;;;3.61;81.60;99127.96;120509;1148;104461;-78
2020/12/25 03:05:33;;;;;;;6.93;5.20;;;;;;;3.66;81.53;99129.58;120597;1148;104402;-78
2020/12/25 03:08:00;;;;;;;7.73;4.80;;;;;;;3.68;81.42;99132.97;120608;1148;104430;-78
2020/12/25 03:10:27;;;;;;;7.83;5.40;;;;;;;3.69;81.30;99139.83;120522;1148;104428;-78
2020/12/25 03:12:55;;;;;;;7.05;4.85;;;;;;;3.71;81.60;99146.64;120582;1148;104392;-78
2020/12/25 03:15:24;;;;;;;6.25;5.15;;;;;;;3.74;81.22;99143.14;120697;1148;104413;-78
2020/12/25 03:17:51;;;;;;;6.53;4.27;;;;;;;3.78;81.23;99149.95;120680;1148;104484;-78
2020/12/25 03:20:18;;;;;;;5.50;4.83;;;;;;;3.77;80.70;99159.42;120681;1148;104492;-78
2020/12/25 03:22:46;;;;;;;7.30;4.90;;;;;;;3.76;80.97;99162.85;120622;1148;104409;-78
2020/12/25 03:25:13;;;;;;;6.40;4.47;;;;;;;3.79;80.67;99162.81;120582;1148;104435;-78
2020/12/25 03:27:40;;;;;;;6.47;4.70;;;;;;;3.80;81.33;99169.66;120548;1148;104492;-78
2020/12/25 03:30:08;;;;;;;5.63;4.17;;;;;;;3.81;81.50;99173.09;120590;1148;104324;-78
2020/12/25 03:32:35;;;;;;;6.93;5.13;;;;;;;3.83;81.35;99168.74;120574;1148;101849;-77
2020/12/25 03:35:03;;;;;;;5.27;4.20;;;;;;;3.82;81.39;99162.73;120545;1148;104937;-78
2020/12/25 03:37:31;;;;;;;5.30;4.13;;;;;;;3.84;80.68;99173.02;120535;1148;104385;-78
2020/12/25 03:39:58;;;;;;;5.63;4.17;;;;;;;3.86;80.70;99169.52;120545;1148;104694;-77
2020/12/25 03:42:26;;;;;;;6.20;4.70;;;;;;;3.89;80.80;99171.17;120558;1148;104295;-78
2020/12/25 03:44:54;;;;;;;5.87;4.30;;;;;;;3.89;81.10;99178.91;120592;1148;104339;-77
2020/12/25 03:47:24;;;;;;;4.87;4.10;;;;;;;3.93;81.00;99181.38;120648;1148;104365;-78
2020/12/25 03:49:54;;;;;;;6.73;4.40;;;;;;;3.96;81.08;99187.38;120608;1150;104567;-77
2020/12/25 03:52:22;;;;;;;6.30;4.30;;;;;;;3.97;81.19;99192.51;120536;1148;105336;-78
2020/12/25 03:54:50;;;;;;;4.57;4.10;;;;;;;3.94;80.66;99182.23;120622;1148;104407;-77
2020/12/25 03:57:17;;;;;;;5.37;4.20;;;;;;;3.97;80.73;99192.51;120552;1148;104329;-78
2020/12/25 03:59:44;;;;;;;4.60;3.50;;;;;;;3.96;80.65;99192.55;120553;1148;104334;-78
2020/12/25 04:02:12;;;;;;;8.13;4.43;;;;;;;3.94;80.58;99198.55;120583;1148;104458;-77
2020/12/25 04:04:40;;;;;;;5.87;4.37;;;;;;;3.94;81.40;99197.71;120569;1148;104425;-78
2020/12/25 04:07:08;;;;;;;7.70;4.47;;;;;;;3.92;81.09;99200.33;120566;1148;104334;-78
2020/12/25 04:09:35;;;;;;;6.70;4.35;;;;;;;3.93;81.34;99203.75;120569;1150;104364;-77
2020/12/25 04:12:02;;;;;;;5.87;4.25;;;;;;;3.93;81.15;99198.59;120575;1148;104424;-77
2020/12/25 04:14:30;;;;;;;6.23;4.70;;;;;;;3.94;80.57;99200.29;120513;1150;104361;-77
2020/12/25 04:16:57;;;;;;;5.07;3.70;;;;;;;3.91;81.28;99203.79;120520;1151;104796;-77
2020/12/25 04:19:24;;;;;;;6.30;3.83;;;;;;;3.91;80.92;99202.94;120547;1148;104319;-77
2020/12/25 04:21:51;;;;;;;7.87;4.00;;;;;;;3.91;81.54;99218.42;120546;1148;104447;-77
2020/12/25 04:24:18;;;;;;;4.83;3.60;;;;;;;3.91;81.81;99210.68;120556;1150;104310;-78
2020/12/25 04:26:48;;;;;;;4.13;3.30;;;;;;;3.90;81.75;99214.14;120575;1150;104380;-78
2020/12/25 04:29:15;;;;;;;4.87;4.03;;;;;;;3.90;80.90;99229.63;120556;1149;104481;-78
2020/12/25 04:31:42;;;;;;;4.60;3.57;;;;;;;3.88;81.49;99223.65;120540;1149;104389;-77
2020/12/25 04:34:10;;;;;;;4.00;3.50;;;;;;;3.86;81.44;99225.41;120589;1148;104363;-78
2020/12/25 04:36:37;;;;;;;4.33;3.60;;;;;;;3.84;81.19;99228.03;120598;1148;104534;-77
2020/12/25 04:39:06;;;;;;;4.63;3.60;;;;;;;3.82;81.16;99228.95;120550;1148;104383;-78
2020/12/25 04:41:35;;;;;;;6.40;3.63;;;;;;;3.81;81.65;99219.52;120569;1148;104426;-78
2020/12/25 04:44:04;;;;;;;4.70;3.47;;;;;;;3.81;81.59;99229.83;120653;1148;104303;-78
2020/12/25 04:46:31;;;;;;;4.20;3.03;;;;;;;3.82;81.69;99229.80;120526;1150;104313;-77
2020/12/25 04:48:59;;;;;;;4.63;3.60;;;;;;;3.81;82.01;99232.41;120666;1148;104410;-78
2020/12/25 04:51:27;;;;;;;4.87;3.60;;;;;;;3.82;81.70;99224.64;120592;1148;104373;-78
2020/12/25 04:53:55;;;;;;;3.83;3.30;;;;;;;3.80;82.04;99221.25;120629;1148;104451;-78
2020/12/25 04:56:24;;;;;;;5.10;3.80;;;;;;;3.80;82.43;99225.55;120679;1148;104317;-77
2020/12/25 04:58:53;;;;;;;7.30;4.10;;;;;;;3.77;81.86;99231.63;120634;1147;104361;-78
2020/12/25 05:01:21;;;;;;;6.23;3.87;;;;;;;3.74;82.31;99236.83;120664;1148;104559;-78
2020/12/25 05:03:48;;;;;;;6.30;3.80;;;;;;;3.75;82.11;99229.94;120526;1148;104471;-78
2020/12/25 05:06:18;;;;;;;5.27;3.83;;;;;;;3.74;82.21;99230.82;120627;1148;104318;-77
2020/12/25 05:08:47;;;;;;;4.77;3.70;;;;;;;3.75;82.62;99232.52;120551;1148;103442;-77
2020/12/25 05:11:16;;;;;;;3.53;3.20;;;;;;;3.74;82.89;99238.56;120580;1148;104506;-77
2020/12/25 05:13:48;;;;;;;4.40;3.77;;;;;;;3.72;82.51;99241.17;120596;1148;104399;-78
2020/12/25 05:16:18;;;;;;;5.77;3.67;;;;;;;3.70;82.62;99248.09;120546;1148;104312;-78
2020/12/25 05:18:50;;;;;;;4.93;3.80;;;;;;;3.70;82.69;99253.25;120700;1148;103024;-78
2020/12/25 05:21:20;;;;;;;5.40;3.73;;;;;;;3.74;82.56;99254.87;120621;1148;104345;-78
2020/12/25 05:23:49;;;;;;;5.37;3.97;;;;;;;3.74;83.19;99259.19;120681;1147;104324;-78
2020/12/25 05:26:18;;;;;;;4.67;3.97;;;;;;;3.73;82.67;99260.07;120568;1148;104371;-78
2020/12/25 05:28:49;;;;;;;3.70;3.30;;;;;;;3.72;82.82;99260.95;120533;1148;104543;-78
2020/12/25 05:31:18;;;;;;;4.23;3.67;;;;;;;3.72;82.59;99268.69;120557;1148;104425;-78
2020/12/25 05:33:50;;;;;;;5.00;3.83;;;;;;;3.74;83.30;99277.24;120607;1148;104329;-78
2020/12/25 05:36:29;;;;;;;3.80;3.20;;;;;;;3.75;83.26;99269.47;120646;1148;104361;-79
2020/12/25 05:38:59;;;;;;;4.33;3.93;;;;;;;3.75;83.15;99273.78;120638;1148;104459;-78
2020/12/25 05:41:28;;;;;;;4.47;3.70;;;;;;;3.73;82.50;99278.13;120585;1148;104364;-78
2020/12/25 05:43:55;;;;;;;4.75;3.35;;;;;;;3.71;83.23;99287.63;120549;1148;104339;-77
2020/12/25 05:46:23;;;;;;;5.20;4.00;;;;;;;3.70;82.63;99291.08;120617;1148;104309;-78
2020/12/25 05:48:52;;;;;;;3.50;3.20;;;;;;;3.70;83.17;99297.09;120576;1148;104427;-77
2020/12/25 05:51:22;;;;;;;3.43;3.13;;;;;;;3.70;82.74;99309.13;120582;1151;104386;-77
2020/12/25 05:53:54;;;;;;;4.73;4.07;;;;;;;3.70;83.26;99311.71;120536;1150;104439;-78
2020/12/25 05:56:21;;;;;;;3.83;3.43;;;;;;;3.70;82.93;99316.87;120606;1148;104393;-77
2020/12/25 05:58:53;;;;;;;3.67;3.30;;;;;;;3.71;83.41;99315.98;120609;1150;104375;-78
2020/12/25 06:01:20;;;;;;;4.80;4.17;;;;;;;3.68;82.58;99319.48;120572;1148;104784;-78
2020/12/25 06:03:48;;;;;;;4.00;3.57;;;;;;;3.67;83.39;99327.25;120501;1148;104503;-78
2020/12/25 06:06:23;;;;;;;4.10;3.70;;;;;;;3.69;82.64;99335.80;120521;1148;104473;-78
2020/12/25 06:08:50;;;;;;;5.60;3.73;;;;;;;3.72;82.90;99341.74;120547;1148;104411;-78
2020/12/25 06:11:28;;;;;;;5.30;3.57;;;;;;;3.71;82.66;99349.52;120571;1148;104295;-78
2020/12/25 06:13:57;;;;;;;3.60;3.30;;;;;;;3.68;82.74;99352.16;120603;1148;104433;-78
2020/12/25 06:16:27;;;;;;;3.80;3.17;;;;;;;3.66;83.13;99361.65;120538;1151;104372;-77
2020/12/25 06:19:23;;;;;;;5.90;3.63;;;;;;;3.62;82.64;99364.29;120567;1148;104481;-77
2020/12/25 06:22:00;;;;;;;6.63;4.07;;;;;;;3.62;82.96;99372.02;120522;1148;104396;-78
2020/12/25 06:24:32;;;;;;;;;;;;;;;3.60;83.17;99378.09;120614;1149;104299;-78
2020/12/25 06:27:01;;;;;;;3.77;2.93;;;;;;;3.57;82.51;99376.39;120587;1148;104386;-78
2020/12/25 06:29:29;;;;;;;5.60;3.50;;;;;;;3.54;82.82;99381.61;120581;1148;104390;-78
2020/12/25 06:31:58;;;;;;;6.17;3.27;;;;;;;3.52;82.48;99380.78;120527;1148;104258;-78
2020/12/25 06:34:46;;;;;;;5.60;3.47;;;;;;;3.50;83.01;99382.55;120555;1148;106377;-78
2020/12/25 06:37:15;;;;;;;4.03;2.73;;;;;;;3.48;82.58;99386.03;120564;1148;104372;-78
2020/12/25 06:39:51;;;;;;;3.37;2.80;;;;;;;3.47;83.31;99392.91;120573;1149;104371;-80
2020/12/25 06:42:24;;;;;;;3.50;2.63;;;;;;;3.47;83.27;99397.22;120652;1148;104447;-79
2020/12/25 06:44:54;;;;;;;6.05;3.10;;;;;;;3.42;83.11;99399.88;120515;1148;104337;-78
2020/12/25 06:47:40;;;;;;;5.00;2.97;;;;;;;3.38;82.81;99407.66;120548;1150;104310;-79
2020/12/25 06:50:10;;;;;;;2.93;2.20;;;;;;;3.34;82.80;99409.45;120622;1150;105512;-79
2020/12/25 06:52:57;;;;;;;3.27;2.60;;;;;;;3.32;83.03;99413.78;120593;1148;104290;-78
2020/12/25 06:55:24;;;;;;;4.17;2.40;;;;;;;3.33;83.24;99420.64;120522;1148;102931;-78
2020/12/25 06:57:55;;;;;;;5.90;2.70;;;;;;;3.33;82.70;99418.06;120543;1148;104335;-78
2020/12/25 07:00:23;;;;;;;3.93;2.30;;;;;;;3.34;83.00;99422.34;120585;1150;103595;-79
2020/12/25 07:02:50;;;;;;;4.40;2.73;;;;;;;3.35;82.97;99424.03;120525;1148;104448;-78
2020/12/25 07:05:17;;;;;;;2.93;1.90;;;;;;;3.37;82.94;99427.44;120581;1148;104399;-78
2020/12/25 07:07:48;;;;;;;2.27;1.90;;;;;;;3.40;83.08;99431.69;120573;1148;104406;-78
2020/12/25 07:10:16;;;;;;;3.33;2.00;;;;;;;3.42;83.11;99435.97;120587;1150;104370;-78
2020/12/25 07:12:43;;;;;;;2.90;2.10;;;;;;;3.45;83.03;99438.49;120555;1148;104383;-80
2020/12/25 07:15:10;;;;;;;2.55;1.90;;;;;;;3.46;82.89;99445.34;120560;1148;104326;-79
2020/12/25 07:17:37;;;;;;;2.97;2.33;;;;;;;3.47;82.54;99439.31;120548;1148;104391;-77
2020/12/25 07:20:09;;;;;;;4.00;2.20;;;;;;;3.52;82.46;99447.81;120584;1148;104490;-78
2020/12/25 07:22:38;;;;;;;3.80;2.00;;;;;;;3.52;81.87;99450.39;120496;1150;104268;-77
2020/12/25 07:25:10;;;;;;;3.00;1.77;;;;;;;3.53;82.34;99459.83;120614;1148;104437;-78
2020/12/25 07:27:37;;;;;;;3.63;1.87;;;;;;;3.51;81.78;99463.31;120527;1148;104403;-78
2020/12/25 07:30:05;;;;;;;4.77;2.63;;;;;;;3.50;82.09;99466.77;120544;1148;102776;-77
2020/12/25 07:32:32;;;;;;;3.15;1.95;;;;;;;3.47;82.10;99466.82;120586;1148;104339;-78
2020/12/25 07:35:06;;;;;;;3.80;1.70;;;;;;;3.49;81.79;99473.66;120513;1148;104175;-78
2020/12/25 07:37:33;;;;;;;5.37;2.27;;;;;;;3.50;81.95;99480.50;120543;1148;104783;-78
2020/12/25 07:40:07;;;;;;;4.63;1.70;;;;;;;3.52;81.23;99472.74;120587;1148;104404;-78
2020/12/25 07:42:39;;;;;;;3.10;1.83;;;;;;;3.50;81.67;99484.81;120523;1150;104358;-78
2020/12/25 07:45:06;;;;;;;4.70;2.20;;;;;;;3.50;81.61;99479.66;120563;1148;104451;-78
2020/12/25 07:47:38;;;;;;;1.80;1.53;;;;;;;3.49;80.82;99471.07;120550;1148;104446;-77
2020/12/25 07:50:06;;;;;;;2.40;1.63;;;;;;;3.49;80.68;99489.12;120532;1148;104304;-78
2020/12/25 07:52:33;;;;;;;3.17;1.40;;;;;;;3.48;80.54;99482.27;120589;1148;104398;-78
2020/12/25 07:55:16;;;;;;;;;;;;;;;3.45;80.67;99491.77;120607;1148;103249;-78
2020/12/25 07:57:46;;;;;;;4.03;1.80;;;;;;;3.40;81.32;99496.13;120639;1148;104317;-79
2020/12/25 08:00:14;;;;;;;2.83;1.40;;;;;;;3.40;81.26;99503.86;120601;1150;104400;-77
2020/12/25 08:02:42;;;;;;;2.47;1.60;;;;;;;3.40;80.57;99509.02;120744;1148;104398;-78
2020/12/25 08:05:10;;;;;;;2.60;1.60;;;;;;;3.43;80.73;99514.15;120648;1148;103923;-78
2020/12/25 08:07:42;;;;;;;3.25;1.60;;;;;;;3.44;80.91;99510.70;120612;1148;104309;-78
2020/12/25 08:10:17;;;;;;;2.57;1.50;;;;;;;3.45;80.97;99522.70;120548;1148;104439;-78
2020/12/25 08:12:51;;;;;;;2.77;1.60;;;;;;;3.47;80.66;99520.95;120581;1148;104451;-79
2020/12/25 08:15:19;;;;;;;3.20;1.63;;;;;;;3.50;81.12;99521.75;120566;1148;104473;-78
2020/12/25 08:17:58;;;;;;;3.17;1.43;;;;;;;3.52;80.67;99524.31;120572;1148;104388;-78
2020/12/25 08:20:26;;;;;;;2.97;1.40;;;;;;;3.51;80.24;99518.30;120564;1148;104385;-77
2020/12/25 08:23:01;;;;;;;3.10;1.53;;;;;;;3.50;80.09;99529.48;120541;1148;104332;-77
2020/12/25 08:25:29;;;;;;;2.93;1.83;;;;;;;3.50;80.30;99541.53;120536;1148;104368;-78
2020/12/25 08:27:57;;;;;;;2.27;1.63;;;;;;;3.50;80.04;99532.06;120672;1148;104326;-78
2020/12/25 08:30:26;;;;;;;3.53;1.70;;;;;;;3.50;80.33;99537.22;120563;1148;104351;-78
2020/12/25 08:32:58;;;;;;;2.13;1.50;;;;;;;3.50;80.13;99542.38;120577;1148;104758;-78
2020/12/25 08:35:30;;;;;;;3.70;1.57;;;;;;;3.51;80.16;99545.81;120599;1148;104403;-77
2020/12/25 08:38:00;;;;;;;3.47;1.60;;;;;;;3.52;79.39;99550.09;120570;1149;104380;-78
2020/12/25 08:40:38;;;;;;;2.27;1.47;;;;;;;3.52;79.72;99544.94;120580;1150;104355;-76
2020/12/25 08:43:16;;;;;;;4.30;2.37;;;;;;;3.53;79.30;99551.79;120558;1148;104309;-78
2020/12/25 08:46:03;;;;;;;2.90;2.00;;;;;;;3.56;79.65;99551.73;120514;1148;103531;-78
2020/12/25 08:48:31;;;;;;;2.43;1.87;;;;;;;3.58;79.59;99556.00;120546;1148;103247;-78
2020/12/25 08:51:13;;;;;;;2.80;1.87;;;;;;;3.60;79.20;99554.27;120583;1148;104317;-78
2020/12/25 08:53:51;;;;;;;2.40;1.93;;;;;;;3.65;79.40;99559.36;120553;1148;104403;-78
2020/12/25 08:56:23;;;;;;;3.60;2.30;;;;;;;3.67;79.25;99565.34;120666;1148;104352;-78
2020/12/25 08:58:58;;;;;;;2.30;1.50;;;;;;;3.70;79.12;99564.44;120585;1148;104411;-78
2020/12/25 09:01:27;;;;;;;3.20;1.83;;;;;;;3.74;79.31;99572.09;120595;1148;104383;-78
2020/12/25 09:03:56;;;;;;;3.13;2.20;;;;;;;3.80;79.13;99571.17;120595;1148;104583;-77
2020/12/25 09:06:23;;;;;;;5.00;2.43;;;;;;;3.85;78.96;99574.52;120624;1148;105753;-78
2020/12/25 09:08:51;;;;;;;3.77;1.67;;;;;;;3.93;78.40;99575.23;120534;1150;104467;-79
2020/12/25 09:11:20;;;;;;;3.97;2.20;;;;;;;4.00;78.67;99581.17;120557;1150;104302;-78
2020/12/25 09:13:49;;;;;;;4.00;2.30;;;;;;;4.07;78.17;99575.88;120628;1148;102672;-79
2020/12/25 09:16:16;;;;;;;4.63;2.40;;;;;;;4.11;78.38;99574.94;120622;1148;104375;-79
2020/12/25 09:18:44;;;;;;;3.83;2.37;;;;;;;4.12;78.64;99580.95;120538;1148;104380;-78
2020/12/25 09:21:13;;;;;;;5.67;2.37;;;;;;;4.10;77.77;99590.45;120598;1148;104275;-79
2020/12/25 09:23:42;;;;;;;3.30;2.07;;;;;;;4.02;77.41;99585.42;120683;1148;102410;-78
2020/12/25 09:26:12;;;;;;;3.87;2.00;;;;;;;3.96;77.79;99585.53;120621;1148;103092;-78
2020/12/25 09:28:41;;;;;;;5.03;2.20;;;;;;;3.90;78.42;99583.03;120563;1148;104306;-78
2020/12/25 09:31:11;;;;;;;4.77;2.43;;;;;;;3.86;78.21;99581.38;120603;1148;104470;-79
2020/12/25 09:33:38;;;;;;;2.77;2.23;;;;;;;3.82;78.24;99588.32;120611;1148;104298;-78
2020/12/25 09:36:08;;;;;;;5.57;2.50;;;;;;;3.78;78.27;99593.56;120576;1148;104336;-79
2020/12/25 09:38:42;;;;;;;5.10;2.90;;;;;;;3.77;78.17;99591.83;120557;1148;104474;-79
2020/12/25 09:41:14;;;;;;;4.20;2.70;;;;;;;3.71;77.75;99587.62;120519;1151;104401;-78
2020/12/25 09:43:42;;;;;;;4.70;2.67;;;;;;;3.62;78.16;99586.05;120547;1148;104419;-79
2020/12/25 09:46:10;;;;;;;4.63;2.50;;;;;;;3.57;77.61;99602.43;120582;1148;104327;-78
2020/12/25 09:48:37;;;;;;;5.57;3.57;;;;;;;3.53;77.58;99596.47;120538;1147;104275;-79
2020/12/25 09:51:05;;;;;;;5.53;3.13;;;;;;;3.51;78.09;99605.95;120548;1148;104393;-79
2020/12/25 09:53:33;;;;;;;4.00;2.90;;;;;;;3.47;77.96;99598.30;120538;1148;104419;-78
2020/12/25 09:56:00;;;;;;;6.47;3.00;;;;;;;3.41;78.06;99604.39;120546;1148;104397;-78
2020/12/25 09:58:28;;;;;;;5.90;2.60;;;;;;;3.38;77.70;99604.41;120576;1148;104348;-78
2020/12/25 10:00:55;;;;;;;4.83;3.40;;;;;;;3.36;77.48;99608.73;120587;1150;102887;-78
2020/12/25 10:03:24;;;;;;;3.10;2.50;;;;;;;3.31;77.48;99607.95;120504;1148;104319;-77
2020/12/25 10:05:52;;;;;;;3.93;2.50;;;;;;;3.27;77.55;99609.72;120587;1148;104786;-78
2020/12/25 10:08:19;;;;;;;2.97;2.67;;;;;;;3.28;77.21;99613.16;120570;1148;104311;-78
2020/12/25 10:10:46;;;;;;;5.30;3.02;;;;;;;3.23;77.81;99620.95;120543;1148;104442;-78
2020/12/25 10:13:13;;;;;;;3.40;2.73;;;;;;;3.22;77.41;99619.21;120542;1148;104359;-78
2020/12/25 10:15:41;;;;;;;4.37;2.97;;;;;;;3.21;78.02;99617.51;120586;1148;104297;-78
2020/12/25 10:18:08;;;;;;;4.27;2.90;;;;;;;3.24;77.79;99627.80;120470;1149;104429;-78
2020/12/25 10:20:35;;;;;;;3.40;2.80;;;;;;;3.23;77.74;99628.68;120564;1148;104516;-78
2020/12/25 10:23:03;;;;;;;4.43;3.37;;;;;;;3.27;77.61;99626.91;120570;1148;104313;-78
2020/12/25 10:25:30;;;;;;;5.83;3.67;;;;;;;3.29;77.90;99630.31;120565;1148;104442;-78
2020/12/25 10:27:58;;;;;;;3.73;3.27;;;;;;;3.29;78.28;99630.31;120590;1148;104339;-78
2020/12/25 10:30:25;;;;;;;5.43;3.17;;;;;;;3.33;78.56;99632.83;120570;1148;104521;-78
2020/12/25 10:32:52;;;;;;;4.13;3.10;;;;;;;3.36;77.96;99637.09;120593;1149;104316;-78
2020/12/25 10:35:20;;;;;;;4.05;3.22;;;;;;;3.34;78.01;99629.38;120637;1148;104352;-78
2020/12/25 10:37:47;;;;;;;3.00;2.70;;;;;;;3.35;77.79;99630.23;120578;1148;104810;-78
2020/12/25 10:40:28;;;;;;;3.83;3.00;;;;;;;3.41;78.36;99635.33;120565;1148;104137;-78
2020/12/25 10:42:56;;;;;;;3.73;3.07;;;;;;;3.44;78.13;99622.39;120584;1148;104774;-78
2020/12/25 10:45:25;;;;;;;4.10;3.07;;;;;;;3.43;77.68;99633.58;120510;1148;104353;-77
2020/12/25 10:47:52;;;;;;;4.77;2.83;;;;;;;3.45;77.60;99641.30;120537;1148;104716;-78
2020/12/25 10:50:20;;;;;;;5.50;2.80;;;;;;;3.46;77.64;99640.42;120575;1148;104447;-78
2020/12/25 10:52:47;;;;;;;3.60;3.20;;;;;;;3.45;77.12;99642.14;120514;1148;104479;-80
2020/12/25 10:55:16;;;;;;;5.80;3.43;;;;;;;3.45;77.41;99636.14;120581;1150;105224;-78
2020/12/25 10:57:43;;;;;;;4.43;3.10;;;;;;;3.42;77.68;99637.03;120560;1148;104331;-79
2020/12/25 11:00:11;;;;;;;5.53;3.63;;;;;;;3.45;77.74;99636.14;120546;1148;105495;-78
2020/12/25 11:02:39;;;;;;;5.57;3.57;;;;;;;3.46;77.58;99646.42;120539;1148;104440;-79
2020/12/25 11:05:07;;;;;;;5.67;3.50;;;;;;;3.46;77.19;99643.84;120501;1148;104362;-78
2020/12/25 11:07:34;;;;;;;6.30;3.40;;;;;;;3.47;77.91;99645.55;120555;1148;104305;-77
2020/12/25 11:10:01;;;;;;;4.78;2.92;;;;;;;3.48;77.55;99647.25;120549;1148;104343;-78
2020/12/25 11:12:29;;;;;;;3.53;2.40;;;;;;;3.50;77.76;99637.77;120573;1148;102461;-78
2020/12/25 11:14:56;;;;;;;6.27;3.23;;;;;;;3.52;77.41;99637.75;120557;1148;104399;-78
2020/12/25 11:17:23;;;;;;;7.53;4.07;;;;;;;3.55;77.09;99643.70;120522;1148;104468;-78
2020/12/25 11:19:55;;;;;;;6.70;3.80;;;;;;;3.55;77.73;99642.86;120578;1150;104343;-78
2020/12/25 11:22:23;;;;;;;7.77;5.13;;;;;;;3.54;77.21;99642.00;120562;1148;104732;-78
2020/12/25 11:24:51;;;;;;;6.00;3.83;;;;;;;3.56;77.59;99645.41;120581;1148;104375;-78
2020/12/25 11:27:18;;;;;;;6.77;3.47;;;;;;;3.57;77.51;99636.80;120550;1148;104447;-78
2020/12/25 11:29:45;;;;;;;4.67;3.20;;;;;;;3.58;76.83;99638.50;120482;1150;104483;-78
2020/12/25 11:32:13;;;;;;;4.80;3.30;;;;;;;3.53;76.81;99640.30;120518;1148;104371;-78
2020/12/25 11:34:40;;;;;;;5.50;2.80;;;;;;;3.50;77.13;99644.66;120578;1147;104364;-78
2020/12/25 11:37:07;;;;;;;4.53;2.90;;;;;;;3.50;76.76;99645.50;120602;1148;104439;-78